Other Surface Observations
Issued by NWS Great Falls, MT

Home | Current Version | Previous Version | Text Only | Print | Product List | Glossary On
Versions: 1 2 3 4 5 6 7 8 9 10 11 12 13 14 15 16 17 18 19 20 21 22 23 24 25 26 27 28 29 30 31 32 33 34 35 36 37 38 39 40 41 42 43 44 45 46 47 48 49 50
000
SXUS55 KTFX 190805
OSOTFX
AREA AWOS OBSERVATIONS
NATIONAL WEATHER SERVICE GREAT FALLS MT
0105 AM MST FRI DEC 19 2014

METAR KPWD 190800Z AUTO 24004KT M1/4SM M05/M05 A2990 RMK PLENTYWOOD
METAR KPO1 190800Z AUTO 00000KT 2SM M08/M09 A2992 RMK POPLAR
METAR K1S3 190800Z AUTO 24005KT 10SM M01/M06 A2995 RMK FORSYTH
METAR KS71 190800Z AUTO 00000KT 4SM M11/M13 A2992 RMK CHINOOK
METAR K38S 190800Z AUTO 00000KT 10SM M03/M06 A3001 RMK DEER LODGE
METAR K3U3 190800Z AUTO 00000KT 10SM M02/M07 A2997 RMK ANACONDA
METAR K6S5 190800Z AUTO 23002KT 10SM M01/M03 A2998 RMK HAMILTON
METAR KS59 190800Z AUTO 00000KT 2 1/2SM 00/M01 A2997 RMK LIBBY
METAR K88M 190800Z AUTO 17008KT 10SM 03/00 A2995 RMK EUREKA



USA.gov is the U.S. government's official web portal to all federal, state and local government web resources and services.